Time;durP1;ratioP1;P1;durP2;ratioP2;P2;SDS_P1;SDS_P2;PMS_P1;PMS_P2;Temp;Humidity;BMP_temperature;BMP_pressure;BME280_temperature;BME280_humidity;BME280_pressure;Samples;Min_cycle;Max_cycle;Signal;HPM_P1;HPM_P2
2023/12/10 00:00:09;;;;;;;62.40;24.90;;;0.70;99.90;;;;;;5015622;28;20029;-64
2023/12/10 00:02:35;;;;;;;68.03;25.98;;;0.70;99.90;;;;;;5015312;28;20057;-63
2023/12/10 00:05:01;;;;;;;69.32;26.05;;;0.70;99.90;;;;;;5015880;28;20184;-64
2023/12/10 00:07:26;;;;;;;68.60;26.27;;;0.70;99.90;;;;;;5015509;28;20451;-64
2023/12/10 00:09:52;;;;;;;68.90;26.95;;;0.80;99.90;;;;;;5015860;28;20025;-63
2023/12/10 00:12:18;;;;;;;66.30;26.75;;;0.70;99.90;;;;;;5017899;28;20029;-64
2023/12/10 00:14:43;;;;;;;66.07;26.23;;;0.70;99.90;;;;;;5034874;28;20437;-63
2023/12/10 00:17:09;;;;;;;72.70;27.55;;;0.70;99.90;;;;;;5035230;28;20036;-64
2023/12/10 00:19:35;;;;;;;67.70;26.27;;;0.70;99.90;;;;;;5034608;28;20021;-64
2023/12/10 00:22:00;;;;;;;62.92;27.23;;;0.70;99.90;;;;;;5034846;28;20573;-64
2023/12/10 00:24:26;;;;;;;65.20;26.75;;;0.70;99.90;;;;;;5034701;28;20036;-66
2023/12/10 00:26:52;;;;;;;69.20;26.65;;;0.70;99.90;;;;;;5034919;28;20103;-64
2023/12/10 00:29:18;;;;;;;64.70;26.55;;;0.70;99.90;;;;;;5035090;28;20025;-64
2023/12/10 00:31:44;;;;;;;65.05;27.45;;;0.70;99.90;;;;;;5034564;28;20034;-64
2023/12/10 00:34:10;;;;;;;65.15;27.15;;;0.70;99.90;;;;;;5034572;28;20423;-66
2023/12/10 00:36:36;;;;;;;61.67;25.20;;;0.70;99.90;;;;;;5034563;28;20044;-64
2023/12/10 00:39:05;;;;;;;55.92;24.50;;;0.80;99.90;;;;;;5034665;28;20068;-64
2023/12/10 00:41:31;;;;;;;58.38;24.15;;;0.70;99.90;;;;;;5034285;28;20036;-63
2023/12/10 00:43:57;;;;;;;53.53;23.80;;;0.70;99.90;;;;;;5034500;28;20037;-64
2023/12/10 00:46:23;;;;;;;60.25;25.48;;;0.70;99.90;;;;;;5034858;28;20363;-63
2023/12/10 00:48:48;;;;;;;57.88;24.88;;;0.70;99.90;;;;;;5034116;28;20025;-63
2023/12/10 00:51:18;;;;;;;58.03;25.02;;;0.80;99.90;;;;;;5034211;28;20033;-63
2023/12/10 00:53:44;;;;;;;64.73;24.83;;;0.70;99.90;;;;;;5033813;28;20065;-63
2023/12/10 00:56:10;;;;;;;60.10;24.73;;;0.80;99.90;;;;;;5034446;28;20060;-64
2023/12/10 00:58:35;;;;;;;63.03;25.98;;;0.80;99.90;;;;;;5034081;28;20101;-63
2023/12/10 01:01:01;;;;;;;60.15;24.92;;;0.80;99.90;;;;;;5034028;28;20441;-62
2023/12/10 01:03:26;;;;;;;60.92;24.77;;;0.80;99.90;;;;;;5033970;28;20036;-64
2023/12/10 01:05:52;;;;;;;60.30;24.80;;;0.80;99.90;;;;;;5034116;28;20477;-64
2023/12/10 01:08:18;;;;;;;59.20;24.88;;;0.80;99.90;;;;;;5034095;28;20540;-63
2023/12/10 01:10:44;;;;;;;57.50;24.50;;;0.80;99.90;;;;;;5033278;28;20493;-64
2023/12/10 01:13:10;;;;;;;55.30;24.60;;;0.80;99.90;;;;;;5033789;28;20021;-63
2023/12/10 01:15:35;;;;;;;59.00;25.35;;;0.80;99.90;;;;;;5033573;28;20025;-63
2023/12/10 01:18:02;;;;;;;55.60;23.77;;;0.80;99.90;;;;;;5033944;28;20045;-64
2023/12/10 01:20:32;;;;;;;55.78;24.88;;;0.80;99.90;;;;;;5033443;28;20026;-66
2023/12/10 01:22:58;;;;;;;59.28;24.35;;;0.80;99.90;;;;;;5034090;28;20078;-64
2023/12/10 01:25:25;;;;;;;55.42;24.90;;;0.80;99.90;;;;;;5033900;28;20474;-63
2023/12/10 01:27:52;;;;;;;53.72;24.17;;;0.80;99.90;;;;;;5033341;28;20048;-63
2023/12/10 01:30:18;;;;;;;54.05;23.90;;;0.90;99.90;;;;;;5033733;28;20033;-63
2023/12/10 01:32:43;;;;;;;54.95;23.10;;;0.90;99.90;;;;;;5023428;28;20382;-63
2023/12/10 01:35:10;;;;;;;60.78;23.90;;;0.90;99.90;;;;;;5013559;28;20104;-63
2023/12/10 01:37:35;;;;;;;52.83;23.58;;;0.90;99.90;;;;;;5013525;28;20057;-63
2023/12/10 01:40:05;;;;;;;54.95;23.98;;;0.90;99.90;;;;;;5014198;28;20057;-63
2023/12/10 01:42:33;;;;;;;57.47;24.45;;;0.90;99.90;;;;;;5013491;28;20034;-63
2023/12/10 01:44:59;;;;;;;58.80;24.25;;;0.90;99.90;;;;;;5013470;28;20037;-63
2023/12/10 01:47:25;;;;;;;54.35;22.95;;;0.90;99.90;;;;;;5013526;28;20105;-63
2023/12/10 01:49:50;;;;;;;54.05;23.73;;;0.90;99.90;;;;;;5013462;28;20057;-63
2023/12/10 01:52:17;;;;;;;57.40;25.05;;;0.90;99.90;;;;;;5013520;28;20479;-63
2023/12/10 01:54:42;;;;;;;57.22;25.88;;;0.80;99.90;;;;;;5013026;28;20046;-63
2023/12/10 01:57:09;;;;;;;54.95;25.00;;;0.80;99.90;;;;;;5013491;28;20125;-63
2023/12/10 01:59:37;;;;;;;59.60;24.73;;;0.80;99.90;;;;;;5012990;28;20464;-63
2023/12/10 02:02:04;;;;;;;51.83;23.20;;;0.80;99.90;;;;;;5013080;28;20097;-64
2023/12/10 02:04:29;;;;;;;54.53;23.73;;;0.80;99.90;;;;;;5011222;28;20121;-64
2023/12/10 02:06:55;;;;;;;56.30;23.73;;;0.80;99.90;;;;;;5020643;28;20108;-64
2023/12/10 02:09:21;;;;;;;52.00;23.15;;;0.80;99.90;;;;;;5032921;28;20033;-63
2023/12/10 02:11:47;;;;;;;54.70;23.35;;;0.80;99.90;;;;;;5032316;28;20021;-64
2023/12/10 02:14:12;;;;;;;50.58;23.73;;;0.80;99.90;;;;;;5032864;28;20079;-63
2023/12/10 02:16:38;;;;;;;55.67;22.30;;;0.80;99.90;;;;;;5032301;28;20029;-64
2023/12/10 02:19:04;;;;;;;44.08;19.95;;;0.90;99.90;;;;;;5032949;28;20036;-63
2023/12/10 02:21:31;;;;;;;46.28;21.33;;;0.90;99.90;;;;;;5032717;28;20055;-63
2023/12/10 02:23:57;;;;;;;48.70;22.35;;;0.90;99.90;;;;;;5032473;28;20025;-62
2023/12/10 02:26:22;;;;;;;48.33;20.98;;;0.90;99.90;;;;;;5032584;28;20105;-63
2023/12/10 02:28:49;;;;;;;49.47;21.88;;;0.90;99.90;;;;;;5032154;28;20030;-63
2023/12/10 02:31:14;;;;;;;51.65;21.65;;;0.90;99.90;;;;;;5032568;28;20025;-62
2023/12/10 02:33:40;;;;;;;52.47;22.05;;;0.90;99.90;;;;;;5032462;28;20033;-64
2023/12/10 02:36:07;;;;;;;49.83;22.10;;;0.90;99.90;;;;;;5032567;28;20108;-63
2023/12/10 02:38:32;;;;;;;47.50;21.67;;;0.90;99.90;;;;;;5032231;28;20029;-68
2023/12/10 02:40:58;;;;;;;44.78;20.77;;;0.90;99.90;;;;;;5032789;28;20375;-64
2023/12/10 02:43:24;;;;;;;50.85;21.48;;;0.90;99.90;;;;;;5032124;28;20118;-63
2023/12/10 02:45:49;;;;;;;51.08;23.30;;;0.90;99.90;;;;;;5031938;28;20113;-63
2023/12/10 02:48:17;;;;;;;44.85;21.05;;;0.90;99.90;;;;;;5032239;28;20029;-62
2023/12/10 02:50:42;;;;;;;46.88;20.92;;;0.90;99.90;;;;;;5032036;28;20063;-63
2023/12/10 02:53:08;;;;;;;42.13;21.20;;;0.90;99.90;;;;;;5031759;28;20081;-63
2023/12/10 02:55:34;;;;;;;43.08;19.55;;;0.90;99.90;;;;;;5031874;28;20443;-68
2023/12/10 02:57:59;;;;;;;40.90;19.95;;;0.90;99.90;;;;;;5031977;28;20040;-64
2023/12/10 03:00:25;;;;;;;41.35;20.15;;;0.90;99.90;;;;;;5031943;28;20036;-63
2023/12/10 03:02:51;;;;;;;42.10;19.30;;;0.90;99.90;;;;;;5031319;28;20203;-64
2023/12/10 03:05:16;;;;;;;43.92;20.58;;;0.90;99.90;;;;;;5031872;28;20108;-63
2023/12/10 03:07:42;;;;;;;42.00;19.52;;;1.00;99.90;;;;;;5031304;28;20032;-63
2023/12/10 03:10:08;;;;;;;37.45;18.20;;;1.00;99.90;;;;;;5031669;28;20026;-63
2023/12/10 03:12:34;;;;;;;38.47;19.33;;;1.00;99.90;;;;;;5032099;28;20030;-62
2023/12/10 03:14:59;;;;;;;34.45;17.73;;;1.00;99.90;;;;;;5031537;28;20047;-64
2023/12/10 03:17:25;;;;;;;39.15;18.45;;;1.00;99.90;;;;;;5035769;28;20079;-64
2023/12/10 03:19:51;;;;;;;38.03;18.45;;;1.00;99.90;;;;;;5035595;28;20451;-63
2023/12/10 03:22:16;;;;;;;36.75;18.40;;;1.00;99.90;;;;;;5036081;28;20048;-63
2023/12/10 03:24:42;;;;;;;41.30;19.25;;;1.00;99.90;;;;;;5035433;28;20029;-64
2023/12/10 03:27:07;;;;;;;40.10;18.98;;;1.00;99.90;;;;;;5035786;28;20477;-62
2023/12/10 03:29:33;;;;;;;37.47;19.65;;;0.90;99.90;;;;;;5035802;28;20039;-62
2023/12/10 03:31:59;;;;;;;36.65;17.95;;;1.00;99.90;;;;;;5035537;28;20525;-63
2023/12/10 03:34:25;;;;;;;36.78;18.50;;;1.00;99.90;;;;;;5031459;28;20026;-63
2023/12/10 03:36:51;;;;;;;40.80;19.08;;;1.00;99.90;;;;;;5015148;28;20387;-63
2023/12/10 03:39:17;;;;;;;36.58;18.20;;;1.00;99.90;;;;;;5016076;28;20057;-62
2023/12/10 03:41:42;;;;;;;40.03;20.50;;;1.00;99.90;;;;;;5015250;28;20123;-63
2023/12/10 03:44:08;;;;;;;43.35;20.92;;;1.00;99.90;;;;;;5015839;28;20402;-62
2023/12/10 03:46:33;;;;;;;37.10;19.00;;;1.00;99.90;;;;;;5015510;28;20034;-64
2023/12/10 03:48:59;;;;;;;39.35;19.27;;;1.00;99.90;;;;;;5015396;28;20351;-64
2023/12/10 03:51:25;;;;;;;44.50;21.20;;;1.00;99.90;;;;;;5015198;28;20022;-64
2023/12/10 03:53:51;;;;;;;43.05;19.50;;;1.00;99.90;;;;;;5015249;28;20037;-63
2023/12/10 03:56:16;;;;;;;39.47;18.60;;;1.00;99.90;;;;;;5015420;28;20597;-64
2023/12/10 03:58:42;;;;;;;41.22;19.50;;;1.00;99.90;;;;;;5015477;28;20097;-64
2023/12/10 04:01:08;;;;;;;37.72;19.02;;;1.00;99.90;;;;;;5015525;28;20112;-64
2023/12/10 04:03:34;;;;;;;35.05;19.05;;;1.00;99.90;;;;;;5021464;28;20037;-62
2023/12/10 04:06:01;;;;;;;38.42;19.55;;;1.00;99.90;;;;;;5034363;28;20029;-63
2023/12/10 04:08:26;;;;;;;34.75;19.10;;;1.10;99.90;;;;;;5035067;28;20040;-63
2023/12/10 04:10:52;;;;;;;40.45;20.17;;;1.10;99.90;;;;;;5034494;28;20411;-63
2023/12/10 04:13:18;;;;;;;40.63;20.17;;;1.10;99.90;;;;;;5034853;28;20025;-65
2023/12/10 04:15:44;;;;;;;39.25;19.85;;;1.00;99.90;;;;;;5034651;28;20124;-64
2023/12/10 04:18:11;;;;;;;39.22;18.80;;;1.10;99.90;;;;;;5034954;28;20029;-63
2023/12/10 04:20:37;;;;;;;37.30;19.95;;;1.10;99.90;;;;;;5034884;28;20030;-63
2023/12/10 04:23:02;;;;;;;38.58;20.48;;;1.10;99.90;;;;;;5034117;28;20026;-63
2023/12/10 04:25:28;;;;;;;39.83;19.27;;;1.10;99.90;;;;;;5034696;28;20041;-64
2023/12/10 04:27:54;;;;;;;40.65;19.33;;;1.10;99.90;;;;;;5033394;28;20055;-63
2023/12/10 04:30:20;;;;;;;36.72;19.38;;;1.10;99.90;;;;;;5034785;28;20080;-63
2023/12/10 04:32:46;;;;;;;37.22;18.85;;;1.10;99.90;;;;;;5034180;28;20033;-63
2023/12/10 04:35:12;;;;;;;37.47;18.95;;;1.10;99.90;;;;;;5034658;28;20040;-64
2023/12/10 04:37:37;;;;;;;34.83;18.45;;;1.10;99.90;;;;;;5034498;28;20131;-63
2023/12/10 04:40:03;;;;;;;37.88;20.58;;;1.10;99.90;;;;;;5034112;28;20112;-63
2023/12/10 04:42:29;;;;;;;36.63;19.48;;;1.10;99.90;;;;;;5034497;28;20032;-63
2023/12/10 04:44:55;;;;;;;36.40;19.10;;;1.10;99.90;;;;;;5034072;28;20378;-63
2023/12/10 04:47:21;;;;;;;39.40;18.90;;;1.10;99.90;;;;;;5034149;28;20029;-63
2023/12/10 04:49:46;;;;;;;38.25;19.67;;;1.10;99.90;;;;;;5033927;28;20425;-64
2023/12/10 04:52:12;;;;;;;33.50;17.60;;;1.20;99.90;;;;;;5034168;28;20053;-64
2023/12/10 04:54:38;;;;;;;34.58;18.50;;;1.20;99.90;;;;;;5033891;28;20029;-63
2023/12/10 04:57:03;;;;;;;34.40;18.90;;;1.20;99.90;;;;;;5033408;28;20087;-63
2023/12/10 04:59:29;;;;;;;42.85;20.20;;;1.20;99.90;;;;;;5034048;28;20029;-63
2023/12/10 05:01:55;;;;;;;35.63;18.98;;;1.20;99.90;;;;;;5033632;28;20075;-63
2023/12/10 05:04:20;;;;;;;41.92;20.35;;;1.20;99.90;;;;;;5033851;28;20038;-63
2023/12/10 05:06:46;;;;;;;39.70;18.25;;;1.20;99.90;;;;;;5033195;28;20470;-64
2023/12/10 05:09:12;;;;;;;35.97;18.33;;;1.20;99.90;;;;;;5033976;28;20029;-62
2023/12/10 05:11:38;;;;;;;34.10;18.58;;;1.20;99.90;;;;;;5033807;28;20405;-63
2023/12/10 05:14:05;;;;;;;33.97;18.13;;;1.20;99.90;;;;;;5033253;28;20437;-63
2023/12/10 05:16:31;;;;;;;37.58;19.27;;;1.20;99.90;;;;;;5034073;28;20032;-63
2023/12/10 05:18:56;;;;;;;40.88;21.60;;;1.10;99.90;;;;;;5033392;28;20025;-63
2023/12/10 05:21:22;;;;;;;44.40;20.35;;;1.20;99.90;;;;;;5033910;28;20382;-63
2023/12/10 05:23:48;;;;;;;37.58;19.50;;;1.20;99.90;;;;;;5033436;28;20030;-63
2023/12/10 05:26:13;;;;;;;43.30;21.10;;;1.20;99.90;;;;;;5033593;28;20207;-63
2023/12/10 05:28:39;;;;;;;44.15;20.98;;;1.20;99.90;;;;;;5033672;28;20033;-63
2023/12/10 05:31:05;;;;;;;41.42;20.70;;;1.20;99.90;;;;;;5033254;28;20101;-63
2023/12/10 05:33:31;;;;;;;44.30;21.73;;;1.20;99.90;;;;;;5022843;28;20383;-63
2023/12/10 05:35:58;;;;;;;45.58;20.42;;;1.20;99.90;;;;;;5013308;28;20344;-63
2023/12/10 05:38:23;;;;;;;41.83;20.73;;;1.20;99.90;;;;;;5013368;28;20037;-63
2023/12/10 05:40:49;;;;;;;44.80;21.85;;;1.20;99.90;;;;;;5012397;28;20026;-63
2023/12/10 05:43:15;;;;;;;40.38;20.88;;;1.30;99.90;;;;;;5013610;28;20041;-63
2023/12/10 05:45:41;;;;;;;38.88;19.63;;;1.30;99.90;;;;;;5013511;28;20124;-64
2023/12/10 05:48:06;;;;;;;42.35;20.85;;;1.30;99.90;;;;;;5012837;28;20130;-63
2023/12/10 05:50:32;;;;;;;44.05;22.25;;;1.30;99.90;;;;;;5013406;28;20030;-63
2023/12/10 05:52:58;;;;;;;46.13;21.20;;;1.30;99.90;;;;;;5012491;28;20054;-63
2023/12/10 05:55:23;;;;;;;43.40;22.42;;;1.30;99.90;;;;;;5013409;28;20042;-63
2023/12/10 05:57:49;;;;;;;43.05;21.55;;;1.20;99.90;;;;;;5013235;28;20076;-64
2023/12/10 06:00:21;;;;;;;44.45;21.05;;;1.30;99.90;;;;;;5069524;28;20441;-63
2023/12/10 06:02:47;;;;;;;45.38;21.98;;;1.30;99.90;;;;;;5069938;28;20033;-63
2023/12/10 06:05:13;;;;;;;42.15;21.45;;;1.30;99.90;;;;;;5069504;28;20028;-63
2023/12/10 06:07:39;;;;;;;45.50;21.88;;;1.30;99.90;;;;;;5069119;28;20024;-62
2023/12/10 06:10:05;;;;;;;50.33;23.70;;;1.30;99.90;;;;;;5067249;28;20070;-63
2023/12/10 06:12:30;;;;;;;49.25;22.77;;;1.30;99.90;;;;;;5069380;28;20088;-63
2023/12/10 06:14:56;;;;;;;47.53;23.58;;;1.30;99.90;;;;;;5069160;28;20036;-64
2023/12/10 06:17:22;;;;;;;54.83;25.15;;;1.30;99.90;;;;;;5069210;28;20025;-63
2023/12/10 06:19:47;;;;;;;58.83;25.15;;;1.30;99.90;;;;;;5069239;28;20362;-63
2023/12/10 06:22:13;;;;;;;50.35;23.50;;;1.30;99.90;;;;;;5068726;28;20426;-64
2023/12/10 06:24:39;;;;;;;47.67;23.38;;;1.30;99.90;;;;;;5069092;28;20028;-64
2023/12/10 06:27:04;;;;;;;49.85;22.48;;;1.30;99.90;;;;;;5068713;28;20359;-64
2023/12/10 06:29:30;;;;;;;51.45;23.77;;;1.30;99.90;;;;;;5068994;28;20064;-65
2023/12/10 06:31:56;;;;;;;50.58;23.80;;;1.30;99.90;;;;;;5068254;28;20021;-64
2023/12/10 06:34:22;;;;;;;46.70;21.55;;;1.30;99.90;;;;;;5068877;28;20028;-64
2023/12/10 06:36:47;;;;;;;44.33;21.30;;;1.30;99.90;;;;;;5068836;28;20492;-63
2023/12/10 06:39:13;;;;;;;41.17;21.45;;;1.30;99.90;;;;;;5066790;28;20519;-64
2023/12/10 06:41:39;;;;;;;48.83;20.52;;;1.30;99.90;;;;;;5068803;28;20031;-64
2023/12/10 06:44:09;;;;;;;43.97;20.60;;;1.30;99.90;;;;;;5068364;28;20098;-63
2023/12/10 06:46:35;;;;;;;41.75;20.98;;;1.30;99.90;;;;;;5068200;28;20426;-63
2023/12/10 06:49:01;;;;;;;47.97;20.63;;;1.30;99.90;;;;;;5068131;28;20484;-64
2023/12/10 06:51:27;;;;;;;45.97;20.92;;;1.30;99.90;;;;;;5068216;28;20128;-63
2023/12/10 06:53:52;;;;;;;49.85;21.17;;;1.40;99.90;;;;;;5068170;28;20032;-65
2023/12/10 06:56:18;;;;;;;44.08;20.70;;;1.40;99.90;;;;;;5068388;28;20024;-63
2023/12/10 06:58:43;;;;;;;45.28;22.73;;;1.40;99.90;;;;;;5068061;28;20056;-64
2023/12/10 07:01:09;;;;;;;39.95;20.38;;;1.40;99.90;;;;;;5067826;28;20025;-64
2023/12/10 07:03:34;;;;;;;45.80;21.42;;;1.40;99.90;;;;;;5068458;28;20028;-63
2023/12/10 07:06:03;;;;;;;40.28;20.92;;;1.40;99.90;;;;;;5067760;28;20039;-63
2023/12/10 07:08:30;;;;;;;44.03;21.60;;;1.40;99.90;;;;;;5068113;28;20037;-64
2023/12/10 07:10:55;;;;;;;48.70;22.00;;;1.40;99.90;;;;;;5058795;28;20032;-63
2023/12/10 07:13:21;;;;;;;40.63;21.75;;;1.40;99.90;;;;;;5054808;28;20029;-63
2023/12/10 07:15:46;;;;;;;45.70;22.52;;;1.40;99.90;;;;;;5054821;28;20036;-63
2023/12/10 07:18:12;;;;;;;44.60;21.77;;;1.40;99.90;;;;;;5054192;28;20450;-65
2023/12/10 07:20:38;;;;;;;46.00;21.55;;;1.50;99.90;;;;;;5054322;28;20083;-64
2023/12/10 07:23:03;;;;;;;50.17;22.30;;;1.50;99.90;;;;;;5053996;28;20036;-63
2023/12/10 07:25:29;;;;;;;42.00;21.08;;;1.50;99.90;;;;;;5054539;28;20025;-64
2023/12/10 07:27:55;;;;;;;47.47;21.67;;;1.50;99.90;;;;;;5054495;28;20040;-64
2023/12/10 07:30:20;;;;;;;41.60;21.00;;;1.50;99.90;;;;;;5052916;28;20036;-63
2023/12/10 07:32:46;;;;;;;42.70;21.13;;;1.50;99.90;;;;;;5054512;28;20025;-63
2023/12/10 07:35:12;;;;;;;51.20;22.80;;;1.50;99.90;;;;;;5054023;28;20407;-63
2023/12/10 07:37:37;;;;;;;45.97;21.65;;;1.50;99.90;;;;;;5061484;28;20017;-63
2023/12/10 07:40:03;;;;;;;43.50;21.08;;;1.50;99.90;;;;;;5073622;28;20346;-63
2023/12/10 07:42:29;;;;;;;46.42;22.95;;;1.50;99.90;;;;;;5074252;28;20452;-63
2023/12/10 07:44:55;;;;;;;48.13;21.85;;;1.60;99.90;;;;;;5074141;28;20071;-63
2023/12/10 07:47:20;;;;;;;46.28;22.52;;;1.60;99.90;;;;;;5073854;28;20108;-63
2023/12/10 07:49:46;;;;;;;55.00;23.35;;;1.60;99.90;;;;;;5072964;28;20468;-63
2023/12/10 07:52:11;;;;;;;56.92;24.23;;;1.60;99.90;;;;;;5073590;28;20056;-63
2023/12/10 07:54:37;;;;;;;46.67;22.73;;;1.60;99.90;;;;;;5074204;28;20096;-63
2023/12/10 07:57:03;;;;;;;44.30;22.35;;;1.60;99.90;;;;;;5073765;28;20070;-64
2023/12/10 07:59:29;;;;;;;44.25;21.90;;;1.60;99.90;;;;;;5074005;28;20556;-63
2023/12/10 08:01:55;;;;;;;50.88;23.13;;;1.70;99.90;;;;;;5074179;28;20075;-63
2023/12/10 08:04:20;;;;;;;47.08;21.83;;;1.70;99.90;;;;;;5073546;28;20327;-64
2023/12/10 08:06:46;;;;;;;46.45;21.42;;;1.70;99.90;;;;;;5074097;28;20028;-63
2023/12/10 08:09:12;;;;;;;47.28;21.40;;;1.70;99.90;;;;;;5073571;28;20039;-63
2023/12/10 08:11:37;;;;;;;40.08;21.55;;;1.70;99.90;;;;;;5069378;28;20029;-63
2023/12/10 08:14:04;;;;;;;43.58;22.17;;;1.70;99.90;;;;;;5053561;28;20024;-63
2023/12/10 08:16:29;;;;;;;43.00;21.85;;;1.80;99.90;;;;;;5053982;28;20060;-63
2023/12/10 08:18:57;;;;;;;39.80;20.38;;;1.80;99.90;;;;;;5053422;28;20113;-63
2023/12/10 08:21:23;;;;;;;40.70;20.30;;;1.80;99.90;;;;;;5052984;28;20021;-63
2023/12/10 08:23:48;;;;;;;43.15;21.40;;;1.80;99.90;;;;;;5053208;28;20033;-64
2023/12/10 08:26:14;;;;;;;40.28;21.13;;;1.80;99.90;;;;;;5053145;28;20025;-63
2023/12/10 08:28:40;;;;;;;37.60;19.85;;;1.80;99.90;;;;;;5053148;28;20067;-63
2023/12/10 08:31:06;;;;;;;34.78;20.20;;;1.80;99.90;;;;;;5052986;28;20036;-64
2023/12/10 08:33:32;;;;;;;45.00;20.77;;;1.90;99.90;;;;;;5053373;28;20025;-64
2023/12/10 08:35:58;;;;;;;42.25;20.63;;;1.90;99.90;;;;;;5053539;28;20511;-62
2023/12/10 08:38:24;;;;;;;44.78;24.27;;;1.90;99.90;;;;;;5052742;28;20033;-63
2023/12/10 08:40:49;;;;;;;40.65;21.25;;;2.00;99.90;;;;;;5053187;28;20036;-64
2023/12/10 08:43:15;;;;;;;42.08;20.90;;;2.00;99.90;;;;;;5052793;28;20032;-63
2023/12/10 08:45:41;;;;;;;49.75;22.10;;;2.10;99.90;;;;;;5053194;28;20032;-64
2023/12/10 08:48:07;;;;;;;42.00;20.23;;;2.10;99.90;;;;;;5052597;28;20032;-63
2023/12/10 08:50:32;;;;;;;40.90;21.45;;;2.20;99.90;;;;;;5052811;28;20426;-63
2023/12/10 08:52:58;;;;;;;40.63;21.40;;;2.20;99.90;;;;;;5053011;28;20030;-62
2023/12/10 08:55:24;;;;;;;42.38;21.27;;;2.20;99.90;;;;;;5052661;28;20083;-63
2023/12/10 08:57:49;;;;;;;42.13;20.33;;;2.30;99.90;;;;;;5053320;28;20378;-64
2023/12/10 09:00:16;;;;;;;41.95;20.50;;;2.30;99.90;;;;;;5052529;28;20123;-63
2023/12/10 09:02:41;;;;;;;45.50;20.42;;;2.30;99.90;;;;;;5052749;28;20029;-63
2023/12/10 09:05:07;;;;;;;43.60;20.27;;;2.30;99.90;;;;;;5052578;28;20163;-63
2023/12/10 09:07:33;;;;;;;41.95;21.00;;;2.30;99.90;;;;;;5052487;28;20025;-63
2023/12/10 09:09:59;;;;;;;38.80;19.80;;;2.30;99.90;;;;;;5052727;28;20068;-63
2023/12/10 09:12:28;;;;;;;42.70;19.52;;;2.40;99.90;;;;;;5052184;28;20031;-64
2023/12/10 09:14:54;;;;;;;41.22;19.35;;;2.40;99.90;;;;;;5052465;28;20492;-64
2023/12/10 09:17:20;;;;;;;35.00;18.25;;;2.40;99.90;;;;;;5052250;28;20033;-63
2023/12/10 09:19:46;;;;;;;38.88;21.17;;;2.50;99.90;;;;;;5052623;28;20051;-64
2023/12/10 09:22:12;;;;;;;40.38;19.60;;;2.50;99.90;;;;;;5051709;28;20104;-63
2023/12/10 09:24:39;;;;;;;35.72;19.25;;;2.50;99.90;;;;;;5052226;28;20454;-63
2023/12/10 09:27:05;;;;;;;41.05;20.17;;;2.60;99.90;;;;;;5052089;28;20322;-63
2023/12/10 09:29:38;;;;;;;37.08;19.42;;;2.70;99.90;;;;;;5052308;28;20029;-63
2023/12/10 09:32:10;;;;;;;43.28;18.52;;;2.70;99.90;;;;;;5051958;28;20037;-65
2023/12/10 09:34:36;;;;;;;37.50;18.17;;;2.80;99.90;;;;;;5054243;28;20020;-63
2023/12/10 09:37:02;;;;;;;30.48;15.77;;;2.90;99.90;;;;;;5072137;28;20028;-63
2023/12/10 09:39:28;;;;;;;29.67;15.32;;;3.00;99.90;;;;;;5071719;28;20426;-64
2023/12/10 09:41:53;;;;;;;31.25;16.40;;;3.10;99.90;;;;;;5072086;28;20033;-64
2023/12/10 09:44:19;;;;;;;30.25;14.45;;;3.20;99.90;;;;;;5071340;28;20025;-64
2023/12/10 09:46:45;;;;;;;30.05;14.57;;;3.30;99.90;;;;;;5071881;28;20024;-63
2023/12/10 09:49:13;;;;;;;27.25;13.85;;;3.40;99.90;;;;;;5071720;28;20468;-63
2023/12/10 09:51:39;;;;;;;30.48;14.45;;;3.50;99.90;;;;;;5072026;28;20032;-63
2023/12/10 09:54:05;;;;;;;21.02;11.45;;;3.60;99.90;;;;;;5071268;28;20486;-64
2023/12/10 09:56:31;;;;;;;24.33;11.35;;;3.70;99.90;;;;;;5072192;28;20095;-63
2023/12/10 09:58:56;;;;;;;13.63;5.10;;;3.90;99.90;;;;;;5071704;28;20132;-63
2023/12/10 10:01:22;;;;;;;15.13;8.07;;;4.00;99.90;;;;;;5071526;28;20107;-63
2023/12/10 10:03:49;;;;;;;23.98;12.30;;;4.20;99.90;;;;;;5072189;28;20154;-63
2023/12/10 10:06:15;;;;;;;30.58;16.02;;;4.30;99.90;;;;;;5071707;28;20107;-64
2023/12/10 10:08:41;;;;;;;29.67;16.75;;;4.30;99.90;;;;;;5065942;28;20136;-63
2023/12/10 10:11:06;;;;;;;26.42;16.02;;;4.30;99.90;;;;;;5051475;28;20079;-64
2023/12/10 10:13:32;;;;;;;30.13;17.33;;;4.20;99.90;;;;;;5051547;28;20078;-63
2023/12/10 10:16:08;;;;;;;26.10;15.75;;;4.10;99.90;;;;;;5051792;28;20091;-63
2023/12/10 10:18:34;;;;;;;27.77;15.70;;;4.00;99.90;;;;;;5051894;28;20044;-63
2023/12/10 10:21:00;;;;;;;28.60;16.40;;;4.00;99.90;;;;;;5051844;28;20025;-64
2023/12/10 10:23:30;;;;;;;28.05;14.65;;;4.00;99.90;;;;;;5049990;28;20033;-63
2023/12/10 10:25:56;;;;;;;27.50;15.25;;;3.90;99.90;;;;;;5051713;28;20428;-63
2023/12/10 10:28:22;;;;;;;29.92;16.05;;;3.90;99.90;;;;;;5051392;28;20029;-64
2023/12/10 10:30:48;;;;;;;27.35;14.93;;;3.90;99.90;;;;;;5051817;28;20044;-63
2023/12/10 10:33:15;;;;;;;21.73;12.00;;;4.00;99.90;;;;;;5051106;28;20070;-63
2023/12/10 10:35:41;;;;;;;13.65;7.28;;;4.00;99.90;;;;;;5051780;28;20514;-64
2023/12/10 10:38:06;;;;;;;4.90;2.30;;;4.10;99.90;;;;;;5051510;28;20096;-64
2023/12/10 10:40:32;;;;;;;7.35;1.88;;;4.30;99.90;;;;;;5051113;28;20029;-64
2023/12/10 10:42:57;;;;;;;7.72;2.78;;;4.60;99.90;;;;;;5051404;28;20401;-64
2023/12/10 10:45:23;;;;;;;3.97;1.58;;;4.90;99.90;;;;;;5051982;28;20025;-63
2023/12/10 10:47:49;;;;;;;9.77;2.50;;;5.20;99.90;;;;;;5055240;28;20065;-64
2023/12/10 10:50:16;;;;;;;7.78;1.65;;;5.50;99.90;;;;;;5054608;28;20055;-63
2023/12/10 10:52:42;;;;;;;7.15;1.33;;;5.80;99.90;;;;;;5055248;28;20036;-63
2023/12/10 10:55:10;;;;;;;5.32;1.80;;;6.00;99.90;;;;;;5054861;28;20500;-63
2023/12/10 10:57:37;;;;;;;8.32;1.77;;;6.20;99.90;;;;;;5055082;28;20128;-63
2023/12/10 11:00:18;;;;;;;11.93;2.92;;;6.40;99.90;;;;;;5054693;28;20132;-64
2023/12/10 11:02:52;;;;;;;6.85;1.55;;;6.50;99.90;;;;;;5055210;28;20029;-64
2023/12/10 11:05:34;;;;;;;6.60;2.05;;;6.60;99.90;;;;;;5054363;28;20466;-63
2023/12/10 11:08:00;;;;;;;18.15;2.92;;;6.80;99.90;;;;;;5055025;28;20036;-63
2023/12/10 11:10:26;;;;;;;10.50;1.90;;;7.00;99.90;;;;;;5054579;28;20051;-64
2023/12/10 11:12:54;;;;;;;9.80;2.17;;;7.10;99.90;;;;;;5054768;28;20021;-64
2023/12/10 11:15:29;;;;;;;5.10;1.63;;;7.20;99.90;;;;;;5054439;28;20116;-63
2023/12/10 11:17:56;;;;;;;18.00;2.00;;;7.30;99.90;;;;;;5054724;28;20025;-64
2023/12/10 11:20:37;;;;;;;8.73;2.15;;;7.40;99.90;;;;;;5054216;28;20037;-64
2023/12/10 11:23:07;;;;;;;7.43;1.90;;;7.50;99.90;;;;;;5054480;28;20035;-64
2023/12/10 11:25:33;;;;;;;8.95;1.85;;;7.60;99.90;;;;;;5054110;28;20123;-64
2023/12/10 11:28:10;;;;;;;10.23;2.13;;;7.70;99.90;;;;;;5054568;28;20031;-63
2023/12/10 11:30:36;;;;;;;8.60;2.10;;;7.80;99.90;;;;;;5053784;28;20485;-63
2023/12/10 11:33:02;;;;;;;9.05;1.90;;;8.00;99.90;;;;;;5055260;28;20032;-63
2023/12/10 11:35:28;;;;;;;8.70;2.35;;;8.10;99.90;;;;;;5054008;28;20029;-62
2023/12/10 11:37:53;;;;;;;10.30;2.47;;;8.20;99.90;;;;;;5054389;28;20070;-63
2023/12/10 11:40:19;;;;;;;9.82;3.05;;;8.20;99.90;;;;;;5053941;28;20079;-64
2023/12/10 11:42:44;;;;;;;10.55;2.28;;;8.30;99.90;;;;;;5054291;28;20071;-64
2023/12/10 11:45:13;;;;;;;10.77;2.30;;;8.40;99.90;;;;;;5054175;28;20025;-63
2023/12/10 11:47:45;;;;;;;8.10;1.95;;;8.40;99.90;;;;;;5054129;28;20029;-64
2023/12/10 11:50:12;;;;;;;9.30;2.63;;;8.50;99.90;;;;;;5054239;28;20037;-63
2023/12/10 11:52:39;;;;;;;10.85;2.47;;;8.50;99.90;;;;;;5053640;28;20481;-63
2023/12/10 11:55:07;;;;;;;10.82;2.30;;;8.50;99.90;;;;;;5054077;28;20021;-62
2023/12/10 11:57:33;;;;;;;8.13;2.45;;;8.50;99.90;;;;;;5053497;28;20358;-63
2023/12/10 12:00:04;;;;;;;15.40;2.80;;;8.50;99.90;;;;;;5053270;28;20037;-63
2023/12/10 12:02:30;;;;;;;9.07;2.70;;;8.50;99.90;;;;;;5052089;28;20110;-63
2023/12/10 12:04:56;;;;;;;11.25;2.40;;;8.50;99.90;;;;;;5053486;28;20028;-63
2023/12/10 12:07:28;;;;;;;13.88;2.53;;;8.60;99.90;;;;;;5053102;28;20067;-63
2023/12/10 12:09:55;;;;;;;7.75;2.30;;;8.60;99.90;;;;;;5053932;28;20033;-63
2023/12/10 12:12:24;;;;;;;9.02;2.60;;;8.50;99.90;;;;;;5053191;28;20033;-63
2023/12/10 12:14:52;;;;;;;11.30;2.88;;;8.60;99.90;;;;;;5053387;28;20025;-64
2023/12/10 12:17:22;;;;;;;13.60;3.08;;;8.50;99.90;;;;;;5052854;28;20079;-64
2023/12/10 12:19:47;;;;;;;8.40;2.25;;;8.50;99.90;;;;;;5053494;28;20064;-64
2023/12/10 12:22:13;;;;;;;16.52;2.67;;;8.50;99.90;;;;;;5053562;28;20032;-64
2023/12/10 12:24:39;;;;;;;16.30;2.75;;;8.60;99.90;;;;;;5053143;28;20033;-63
2023/12/10 12:27:07;;;;;;;11.02;2.70;;;8.60;99.90;;;;;;5053734;28;20372;-64
2023/12/10 12:29:34;;;;;;;9.98;2.70;;;8.60;99.90;;;;;;5053058;28;20032;-63
2023/12/10 12:32:02;;;;;;;11.82;2.65;;;8.60;99.90;;;;;;5053479;28;20064;-63